createdAt,value
2019-01-11T00:00:43.809Z,95.80
2019-01-11T00:03:12.750Z,95.20
2019-01-11T00:05:41.547Z,94.90
2019-01-11T00:08:10.375Z,94.80
2019-01-11T00:10:41.006Z,95.00
2019-01-11T00:13:09.349Z,94.70
2019-01-11T00:15:38.333Z,94.80
2019-01-11T00:18:07.072Z,94.80
2019-01-11T00:20:35.835Z,94.80
2019-01-11T00:23:04.876Z,94.60
2019-01-11T00:25:33.579Z,94.40
2019-01-11T00:28:02.230Z,94.70
2019-01-11T00:30:30.861Z,94.70
2019-01-11T00:32:59.471Z,94.70
2019-01-11T00:35:28.131Z,94.40
2019-01-11T00:37:56.703Z,94.70
2019-01-11T00:40:25.373Z,94.90
2019-01-11T00:42:53.921Z,94.40
2019-01-11T00:45:22.497Z,94.30
2019-01-11T00:47:51.131Z,94.50
2019-01-11T00:50:21.335Z,93.90
2019-01-11T00:52:49.971Z,94.60
2019-01-11T00:55:18.568Z,93.90
2019-01-11T00:57:47.128Z,94.60
2019-01-11T01:00:19.016Z,94.10
2019-01-11T01:02:47.717Z,94.30
2019-01-11T01:05:16.528Z,94.50
2019-01-11T01:07:45.147Z,93.80
2019-01-11T01:10:13.968Z,94.30
2019-01-11T06:27:05.798Z,99.90
2019-01-11T06:55:13.301Z,99.90
2019-01-11T07:00:54.023Z,99.90
2019-01-11T07:03:34.424Z,99.90
2019-01-11T07:06:12.154Z,99.90
2019-01-11T07:08:34.003Z,99.90
2019-01-11T07:14:32.209Z,99.90
2019-01-11T08:41:38.185Z,98.10
2019-01-11T08:44:06.778Z,98.60
2019-01-11T08:46:35.413Z,97.90
2019-01-11T08:49:04.073Z,97.90
2019-01-11T08:51:32.708Z,98.30
2019-01-11T08:54:01.299Z,98.60
2019-01-11T08:56:29.883Z,99.10
2019-01-11T08:58:58.470Z,98.70
2019-01-11T09:01:27.036Z,98.60
2019-01-11T09:03:55.757Z,98.50
2019-01-11T09:06:24.403Z,97.90
2019-01-11T09:08:52.992Z,97.60
2019-01-11T09:11:21.653Z,96.30
2019-01-11T09:13:50.247Z,94.60
2019-01-11T09:16:20.790Z,94.20
2019-01-11T09:18:49.146Z,93.20
2019-01-11T09:21:17.729Z,92.90
2019-01-11T09:23:46.311Z,92.50
2019-01-11T09:26:14.924Z,92.90
2019-01-11T09:28:43.488Z,93.40
2019-01-11T09:31:14.674Z,93.00
2019-01-11T09:33:43.233Z,91.90
2019-01-11T09:36:11.896Z,92.90
2019-01-11T09:38:40.521Z,92.00
2019-01-11T09:41:09.176Z,92.00
2019-01-11T09:43:37.741Z,91.90
2019-01-11T09:46:06.540Z,92.50
2019-01-11T09:48:36.328Z,93.00
2019-01-11T09:51:04.991Z,92.70
2019-01-11T09:53:33.625Z,93.20
2019-01-11T09:56:02.254Z,92.80
2019-01-11T09:58:30.896Z,93.30
2019-01-11T10:00:59.564Z,93.50
2019-01-11T10:03:28.188Z,92.90
2019-01-11T10:05:56.792Z,92.50
2019-01-11T10:08:25.354Z,93.20
2019-01-11T10:10:53.934Z,93.10
2019-01-11T10:13:22.561Z,93.30
2019-01-11T10:15:51.162Z,93.40
2019-01-11T10:18:19.817Z,93.80
2019-01-11T10:20:49.773Z,93.80
2019-01-11T10:23:18.328Z,94.60
2019-01-11T10:25:46.977Z,94.10
2019-01-11T10:28:15.548Z,94.20
2019-01-11T10:30:44.286Z,94.60
2019-01-11T10:33:12.844Z,94.70
2019-01-11T10:35:41.808Z,95.40
2019-01-11T10:38:10.380Z,95.40
2019-01-11T10:40:38.978Z,95.90
2019-01-11T10:43:07.614Z,95.60
2019-01-11T10:45:36.261Z,96.10
2019-01-11T10:48:05.277Z,96.20
2019-01-11T10:50:33.887Z,96.70
2019-01-11T10:53:02.523Z,96.40
2019-01-11T10:55:31.142Z,96.90
2019-01-11T10:57:59.816Z,96.70
2019-01-11T11:00:28.512Z,97.50
2019-01-11T11:02:57.443Z,97.30
2019-01-11T11:05:26.152Z,97.30
2019-01-11T11:07:54.815Z,97.60
2019-01-11T11:10:23.638Z,98.40
2019-01-11T11:12:52.352Z,98.10
2019-01-11T11:15:20.992Z,98.30
2019-01-11T11:17:49.725Z,98.80
2019-01-11T11:20:19.507Z,99.20
2019-01-11T11:22:48.451Z,99.30
2019-01-11T11:25:19.332Z,99.40
2019-01-11T11:27:48.084Z,99.50
2019-01-11T11:30:18.287Z,99.80
2019-01-11T11:32:56.641Z,99.90
2019-01-11T11:35:25.412Z,99.90
2019-01-11T11:37:54.324Z,99.90
2019-01-11T11:40:23.601Z,99.90
2019-01-11T11:42:52.201Z,99.90
2019-01-11T11:45:20.906Z,99.90
2019-01-11T11:47:49.499Z,99.90
2019-01-11T11:50:18.064Z,99.90
2019-01-11T11:52:46.666Z,99.90
2019-01-11T11:55:15.232Z,99.90
2019-01-11T11:57:43.891Z,99.90
2019-01-11T12:00:20.886Z,99.90
2019-01-11T12:02:49.552Z,99.90
2019-01-11T12:05:18.128Z,99.90
2019-01-11T12:08:06.120Z,99.90
2019-01-11T12:10:34.689Z,99.90
2019-01-11T12:13:03.284Z,99.90
2019-01-11T12:15:31.845Z,99.90
2019-01-11T12:18:02.039Z,99.90
2019-01-11T12:20:30.844Z,99.90
2019-01-11T12:22:59.695Z,99.90
2019-01-11T12:25:28.324Z,99.90
2019-01-11T12:27:56.982Z,99.90
2019-01-11T12:30:25.545Z,99.90
2019-01-11T12:32:54.134Z,99.90
2019-01-11T12:35:22.761Z,99.90
2019-01-11T12:37:51.344Z,99.90
2019-01-11T12:40:19.985Z,99.90
2019-01-11T12:42:48.568Z,99.90
2019-01-11T12:45:17.381Z,99.90
2019-01-11T12:47:46.049Z,99.90
2019-01-11T12:50:17.527Z,99.90
2019-01-11T12:52:46.088Z,99.90
2019-01-11T12:55:14.754Z,99.90
2019-01-11T12:57:43.320Z,99.90
2019-01-11T13:00:16.797Z,99.90
2019-01-11T13:02:45.508Z,99.90
2019-01-11T13:05:16.740Z,99.90
2019-01-11T13:07:45.376Z,99.90
2019-01-11T13:10:16.585Z,99.90
2019-01-11T13:12:45.228Z,99.90
2019-01-11T13:15:16.517Z,99.90
2019-01-11T13:17:45.134Z,99.90
2019-01-11T13:20:15.952Z,99.90
2019-01-11T13:22:44.661Z,99.90
2019-01-11T13:25:13.334Z,99.90
2019-01-11T13:27:41.908Z,99.90
2019-01-11T13:30:13.148Z,99.90
2019-01-11T13:32:41.872Z,99.90
2019-01-11T13:35:11.886Z,99.90
2019-01-11T13:37:41.298Z,99.90
2019-01-11T13:40:15.473Z,99.90
2019-01-11T13:42:44.502Z,99.90
2019-01-11T13:45:13.700Z,99.90
2019-01-11T13:47:42.458Z,99.90
2019-01-11T13:50:31.720Z,99.90
2019-01-11T13:53:00.436Z,99.90
2019-01-11T13:55:29.091Z,99.90
2019-01-11T13:57:57.725Z,99.90
2019-01-11T14:00:26.385Z,99.90
2019-01-11T14:02:55.015Z,99.90
2019-01-11T14:05:23.675Z,99.90
2019-01-11T14:07:52.332Z,99.90
2019-01-11T14:10:20.988Z,99.90
2019-01-11T14:12:49.569Z,99.90
2019-01-11T14:15:37.560Z,99.90
2019-01-11T14:18:06.805Z,99.90
2019-01-11T14:20:35.552Z,99.90
2019-01-11T14:23:04.453Z,99.90
2019-01-11T14:25:33.049Z,99.90
2019-01-11T14:28:01.672Z,99.90
2019-01-11T14:30:30.401Z,99.90
2019-01-11T14:32:58.962Z,99.90
2019-01-11T14:35:27.549Z,99.90
2019-01-11T14:37:56.176Z,99.90
2019-01-11T14:40:25.056Z,99.90
2019-01-11T14:42:53.784Z,99.90
2019-01-11T14:45:22.363Z,99.90
2019-01-11T14:47:51.245Z,99.90
2019-01-11T14:50:20.280Z,99.90
2019-01-11T14:52:48.869Z,99.90
2019-01-11T14:55:17.439Z,99.90
2019-01-11T14:57:46.107Z,99.90
2019-01-11T15:00:17.740Z,99.90
2019-01-11T15:02:46.506Z,99.90
2019-01-11T15:05:16.168Z,99.90
2019-01-11T15:07:44.751Z,99.90
2019-01-11T15:10:14.761Z,99.90
2019-01-11T15:12:44.375Z,99.90
2019-01-11T15:15:13.001Z,99.90
2019-01-11T15:17:41.585Z,99.90
2019-01-11T15:20:12.952Z,99.90
2019-01-11T15:22:41.609Z,99.90
2019-01-11T15:25:11.103Z,99.90
2019-01-11T15:27:39.688Z,99.90
2019-01-11T15:30:19.588Z,99.90
2019-01-11T15:32:48.121Z,99.90
2019-01-11T15:35:16.826Z,99.90
2019-01-11T15:37:45.475Z,99.90
2019-01-11T15:40:20.223Z,99.90
2019-01-11T15:42:48.812Z,99.90
2019-01-11T15:45:17.544Z,99.90
2019-01-11T15:47:46.212Z,99.90
2019-01-11T15:50:43.619Z,99.90
2019-01-11T15:53:12.223Z,99.90
2019-01-11T15:55:40.803Z,99.90
2019-01-11T15:58:09.383Z,99.90
2019-01-11T16:00:46.034Z,99.90
2019-01-11T16:03:14.687Z,99.90
2019-01-11T16:05:43.324Z,99.90
2019-01-11T16:08:11.913Z,99.90
2019-01-11T16:11:00.117Z,99.90
2019-01-11T16:13:28.944Z,99.90
2019-01-11T16:16:00.220Z,99.90
2019-01-11T16:18:28.805Z,99.90
2019-01-11T16:20:57.440Z,99.90
2019-01-11T16:23:26.021Z,99.90
2019-01-11T16:25:54.592Z,99.90
2019-01-11T16:28:23.176Z,99.90
2019-01-11T16:30:51.737Z,99.90
2019-01-11T16:33:20.325Z,99.90
2019-01-11T16:35:48.884Z,99.90
2019-01-11T16:38:17.484Z,99.90
2019-01-11T16:40:46.112Z,99.90
2019-01-11T16:43:15.808Z,99.90
2019-01-11T16:45:44.370Z,99.90
2019-01-11T16:48:12.961Z,99.90
2019-01-11T16:50:41.523Z,99.90
2019-01-11T16:53:10.108Z,99.90
2019-01-11T16:55:38.751Z,99.90
2019-01-11T16:58:07.509Z,99.90
2019-01-11T17:00:36.130Z,99.90
2019-01-11T17:03:04.949Z,99.90
2019-01-11T17:05:33.509Z,99.90
2019-01-11T17:08:02.072Z,99.90
2019-01-11T17:10:30.678Z,99.90
2019-01-11T17:12:59.228Z,99.90
2019-01-11T17:15:27.893Z,99.90
2019-01-11T17:17:56.451Z,99.90
2019-01-11T17:20:25.216Z,99.90
2019-01-11T17:22:53.783Z,99.90
2019-01-11T17:25:22.368Z,99.90
2019-01-11T17:27:51.028Z,99.90
2019-01-11T17:30:19.708Z,99.90
2019-01-11T17:32:48.360Z,99.90
2019-01-11T17:35:17.029Z,99.90
2019-01-11T17:37:45.598Z,99.90
2019-01-11T17:40:14.328Z,99.90
2019-01-11T17:42:42.968Z,99.90
2019-01-11T17:45:12.640Z,99.90
2019-01-11T17:47:41.332Z,99.90
2019-01-11T17:50:14.023Z,99.90
2019-01-11T17:52:42.969Z,99.90
2019-01-11T17:55:12.008Z,99.90
2019-01-11T17:57:40.653Z,99.90
2019-01-11T18:00:12.472Z,99.90
2019-01-11T18:02:41.050Z,99.90
2019-01-11T18:05:11.565Z,99.90
2019-01-11T18:07:40.263Z,99.90
2019-01-11T18:10:10.692Z,99.90
2019-01-11T18:12:40.033Z,99.90
2019-01-11T18:15:17.318Z,99.90
2019-01-11T18:17:45.965Z,99.90
2019-01-11T18:20:20.135Z,99.90
2019-01-11T18:23:08.058Z,99.90
2019-01-11T18:25:36.646Z,99.90
2019-01-11T18:28:05.282Z,99.90
2019-01-11T18:30:33.945Z,99.90
2019-01-11T18:33:02.502Z,99.90
2019-01-11T18:35:31.087Z,99.90
2019-01-11T18:38:00.601Z,99.90
2019-01-11T18:40:29.273Z,99.90
2019-01-11T18:42:57.855Z,99.90
2019-01-11T18:45:28.706Z,99.90
2019-01-11T18:47:56.745Z,99.90
2019-01-11T18:50:25.342Z,99.90
2019-01-11T18:52:53.925Z,99.90
2019-01-11T18:55:22.521Z,99.90
2019-01-11T18:57:51.148Z,99.90
2019-01-11T19:00:24.494Z,99.90
2019-01-11T19:02:53.148Z,99.90
2019-01-11T19:05:21.745Z,99.90
2019-01-11T19:07:50.425Z,99.90
2019-01-11T19:10:20.765Z,99.90
2019-01-11T19:12:49.352Z,99.90
2019-01-11T19:15:24.149Z,99.90
2019-01-11T19:17:52.743Z,99.90
2019-01-11T19:20:24.056Z,99.90
2019-01-11T19:22:52.764Z,99.90
2019-01-11T19:25:21.475Z,99.90
2019-01-11T19:27:50.204Z,99.90
2019-01-11T19:30:23.681Z,99.90
2019-01-11T19:32:52.613Z,99.90
2019-01-11T19:35:21.339Z,99.90
2019-01-11T19:37:50.026Z,99.90
2019-01-11T19:40:18.753Z,99.90
2019-01-11T19:42:47.668Z,99.90
2019-01-11T19:45:17.397Z,99.90
2019-01-11T19:47:46.155Z,99.90
2019-01-11T19:50:20.280Z,99.90
2019-01-11T19:52:50.212Z,99.90
2019-01-11T19:55:19.368Z,99.90
2019-01-11T19:57:48.095Z,99.90
2019-01-11T20:00:22.361Z,99.90
2019-01-11T20:02:51.106Z,99.90
2019-01-11T20:05:20.621Z,99.90
2019-01-11T20:07:49.548Z,99.90
2019-01-11T20:10:21.062Z,99.90
2019-01-11T20:12:49.710Z,99.90
2019-01-11T20:15:21.441Z,99.90
2019-01-11T20:17:50.116Z,99.90
2019-01-11T20:20:18.736Z,99.90
2019-01-11T20:22:47.595Z,99.90
2019-01-11T20:25:18.191Z,99.90
2019-01-11T20:27:46.921Z,99.90
2019-01-11T20:30:18.220Z,99.90
2019-01-11T20:32:47.156Z,99.90
2019-01-11T20:35:16.168Z,99.90
2019-01-11T20:37:46.809Z,99.90
2019-01-11T20:40:16.608Z,99.90
2019-01-11T20:42:45.335Z,99.90
2019-01-11T20:45:16.148Z,99.90
2019-01-11T20:47:44.927Z,99.90
2019-01-11T20:50:18.564Z,99.90
2019-01-11T20:52:51.580Z,99.90
2019-01-11T20:55:20.235Z,99.90
2019-01-11T20:57:49.018Z,99.90
2019-01-11T21:00:27.049Z,99.90
2019-01-11T21:02:55.810Z,99.90
2019-01-11T21:05:25.220Z,99.90
2019-01-11T21:07:53.907Z,99.90
2019-01-11T21:10:22.705Z,99.90
2019-01-11T21:12:51.649Z,99.90
2019-01-11T21:15:22.473Z,99.90
2019-01-11T21:17:51.713Z,99.90
2019-01-11T21:20:20.744Z,99.90
2019-01-11T21:22:49.389Z,99.90
2019-01-11T21:25:19.628Z,99.90
2019-01-11T21:27:48.456Z,99.90
2019-01-11T21:30:19.617Z,99.90
2019-01-11T21:32:48.202Z,99.90
2019-01-11T21:35:16.877Z,99.90
2019-01-11T21:37:45.716Z,99.90
2019-01-11T21:40:18.984Z,99.90
2019-01-11T21:42:47.880Z,99.90
2019-01-11T21:45:17.131Z,99.90
2019-01-11T21:47:45.888Z,99.90
2019-01-11T21:50:17.013Z,99.90
2019-01-11T21:52:45.557Z,99.90
2019-01-11T21:55:14.884Z,99.90
2019-01-11T21:57:44.081Z,99.90
2019-01-11T22:00:15.840Z,99.90
2019-01-11T22:02:45.031Z,99.90
2019-01-11T22:05:13.883Z,99.90
2019-01-11T22:07:42.540Z,99.90
2019-01-11T22:10:14.352Z,99.90
2019-01-11T22:12:42.920Z,99.90
2019-01-11T22:15:16.807Z,99.90
2019-01-11T22:17:45.444Z,99.90
2019-01-11T22:20:16.338Z,99.90
2019-01-11T22:22:45.259Z,99.90
2019-01-11T22:25:15.724Z,99.90
2019-01-11T22:27:44.439Z,99.90
2019-01-11T22:30:18.817Z,99.90
2019-01-11T22:32:47.523Z,99.90
2019-01-11T22:35:16.388Z,99.90
2019-01-11T22:37:45.003Z,99.90
2019-01-11T22:40:15.938Z,99.90
2019-01-11T22:42:44.672Z,99.90
2019-01-11T22:45:14.810Z,99.90
2019-01-11T22:47:43.464Z,99.90
2019-01-11T22:50:14.991Z,99.90
2019-01-11T22:52:43.704Z,99.90
2019-01-11T22:55:14.913Z,99.90
2019-01-11T22:57:43.486Z,99.90
2019-01-11T23:00:40.273Z,99.90
2019-01-11T23:03:12.166Z,99.90
2019-01-11T23:05:41.148Z,99.90
2019-01-11T23:08:11.982Z,99.90
2019-01-11T23:10:54.892Z,99.90
2019-01-11T23:13:23.559Z,99.90
2019-01-11T23:15:52.401Z,99.90
2019-01-11T23:18:20.996Z,99.90
2019-01-11T23:20:49.611Z,99.90
2019-01-11T23:23:18.268Z,99.90
2019-01-11T23:25:46.991Z,99.90
2019-01-11T23:28:15.567Z,99.90
2019-01-11T23:30:44.157Z,99.90
2019-01-11T23:33:12.720Z,99.90
2019-01-11T23:35:41.350Z,99.90
2019-01-11T23:38:10.033Z,99.90
2019-01-11T23:40:38.767Z,99.90
2019-01-11T23:43:07.422Z,99.90
2019-01-11T23:45:36.052Z,99.90
2019-01-11T23:48:04.877Z,99.90
2019-01-11T23:50:33.538Z,99.90
2019-01-11T23:53:02.121Z,99.90
2019-01-11T23:55:30.729Z,99.90
2019-01-11T23:57:59.576Z,99.90
